sensor_id;sensor_type;location;lat;lon;timestamp;P1;durP1;ratioP1;P2;durP2;ratioP2
63953;SDS011;50128;52.094;5.232;2023-03-30T00:00:10;7.5;;;4.2;;
63953;SDS011;50128;52.094;5.232;2023-03-30T00:03:24;7.9;;;5.0;;
63953;SDS011;50128;52.094;5.232;2023-03-30T00:05:01;7.8;;;4.61;;
63953;SDS011;50128;52.094;5.232;2023-03-30T00:06:37;6.7;;;4.3;;
63953;SDS011;50128;52.094;5.232;2023-03-30T00:09:49;9.1;;;4.91;;
63953;SDS011;50128;52.094;5.232;2023-03-30T00:11:26;9.1;;;5.11;;
63953;SDS011;50128;52.094;5.232;2023-03-30T00:13:03;8.4;;;4.3;;
63953;SDS011;50128;52.094;5.232;2023-03-30T00:16:16;7.5;;;4.41;;
63953;SDS011;50128;52.094;5.232;2023-03-30T00:17:53;9.5;;;4.61;;
63953;SDS011;50128;52.094;5.232;2023-03-30T00:19:29;10.1;;;4.91;;
63953;SDS011;50128;52.094;5.232;2023-03-30T00:21:05;8.5;;;4.2;;
63953;SDS011;50128;52.094;5.232;2023-03-30T00:24:21;7.5;;;4.7;;
63953;SDS011;50128;52.094;5.232;2023-03-30T00:25:58;12.1;;;4.91;;
63953;SDS011;50128;52.094;5.232;2023-03-30T00:27:35;8.31;;;4.41;;
63953;SDS011;50128;52.094;5.232;2023-03-30T00:30:48;6.9;;;4.2;;
63953;SDS011;50128;52.094;5.232;2023-03-30T00:32:24;8.2;;;4.7;;
63953;SDS011;50128;52.094;5.232;2023-03-30T00:34:00;7.9;;;5.0;;
63953;SDS011;50128;52.094;5.232;2023-03-30T00:35:36;7.7;;;4.2;;
63953;SDS011;50128;52.094;5.232;2023-03-30T00:38:49;7.7;;;4.41;;
63953;SDS011;50128;52.094;5.232;2023-03-30T00:40:25;8.5;;;4.8;;
63953;SDS011;50128;52.094;5.232;2023-03-30T00:42:01;8.81;;;4.5;;
63953;SDS011;50128;52.094;5.232;2023-03-30T00:45:30;7.5;;;4.41;;
63953;SDS011;50128;52.094;5.232;2023-03-30T00:47:07;8.71;;;4.7;;
63953;SDS011;50128;52.094;5.232;2023-03-30T00:48:44;7.5;;;4.1;;
63953;SDS011;50128;52.094;5.232;2023-03-30T00:50:21;7.5;;;4.61;;
63953;SDS011;50128;52.094;5.232;2023-03-30T00:53:38;7.2;;;4.41;;
63953;SDS011;50128;52.094;5.232;2023-03-30T00:55:17;7.0;;;4.1;;
63953;SDS011;50128;52.094;5.232;2023-03-30T00:56:57;6.8;;;3.8;;
63953;SDS011;50128;52.094;5.232;2023-03-30T01:00:14;6.4;;;3.7;;
63953;SDS011;50128;52.094;5.232;2023-03-30T01:01:50;8.31;;;4.0;;
63953;SDS011;50128;52.094;5.232;2023-03-30T01:03:27;6.3;;;3.6;;
63953;SDS011;50128;52.094;5.232;2023-03-30T01:05:07;6.4;;;3.4;;
63953;SDS011;50128;52.094;5.232;2023-03-30T01:08:23;6.9;;;3.4;;
63953;SDS011;50128;52.094;5.232;2023-03-30T01:10:01;5.5;;;3.2;;
63953;SDS011;50128;52.094;5.232;2023-03-30T01:11:38;6.6;;;3.3;;
63953;SDS011;50128;52.094;5.232;2023-03-30T01:13:15;5.8;;;2.7;;
63953;SDS011;50128;52.094;5.232;2023-03-30T01:16:29;6.0;;;3.2;;
63953;SDS011;50128;52.094;5.232;2023-03-30T01:18:18;7.1;;;3.1;;
63953;SDS011;50128;52.094;5.232;2023-03-30T01:20:18;6.2;;;2.8;;
63953;SDS011;50128;52.094;5.232;2023-03-30T01:23:51;6.2;;;2.9;;
63953;SDS011;50128;52.094;5.232;2023-03-30T01:28:38;5.6;;;2.6;;
63953;SDS011;50128;52.094;5.232;2023-03-30T01:30:25;5.3;;;2.5;;
63953;SDS011;50128;52.094;5.232;2023-03-30T01:33:24;6.0;;;2.6;;
63953;SDS011;50128;52.094;5.232;2023-03-30T01:35:45;6.2;;;3.0;;
63953;SDS011;50128;52.094;5.232;2023-03-30T01:39:15;6.1;;;2.4;;
63953;SDS011;50128;52.094;5.232;2023-03-30T01:41:30;6.4;;;2.4;;
63953;SDS011;50128;52.094;5.232;2023-03-30T01:43:13;5.9;;;2.8;;
63953;SDS011;50128;52.094;5.232;2023-03-30T01:44:54;5.8;;;2.7;;
63953;SDS011;50128;52.094;5.232;2023-03-30T01:48:23;5.8;;;2.6;;
63953;SDS011;50128;52.094;5.232;2023-03-30T01:50:06;5.9;;;2.7;;
63953;SDS011;50128;52.094;5.232;2023-03-30T01:51:50;6.8;;;2.8;;
63953;SDS011;50128;52.094;5.232;2023-03-30T01:53:43;4.2;;;2.7;;
63953;SDS011;50128;52.094;5.232;2023-03-30T01:55:27;7.2;;;2.7;;
63953;SDS011;50128;52.094;5.232;2023-03-30T01:58:51;5.4;;;2.5;;
63953;SDS011;50128;52.094;5.232;2023-03-30T02:00:32;4.91;;;2.4;;
63953;SDS011;50128;52.094;5.232;2023-03-30T02:02:11;6.3;;;2.9;;
63953;SDS011;50128;52.094;5.232;2023-03-30T02:03:51;6.4;;;2.7;;
63953;SDS011;50128;52.094;5.232;2023-03-30T02:07:10;5.2;;;2.6;;
63953;SDS011;50128;52.094;5.232;2023-03-30T02:08:50;7.1;;;2.8;;
63953;SDS011;50128;52.094;5.232;2023-03-30T02:10:31;4.8;;;2.8;;
63953;SDS011;50128;52.094;5.232;2023-03-30T02:12:10;5.6;;;2.9;;
63953;SDS011;50128;52.094;5.232;2023-03-30T02:15:29;5.3;;;2.5;;
63953;SDS011;50128;52.094;5.232;2023-03-30T02:17:14;5.3;;;2.21;;
63953;SDS011;50128;52.094;5.232;2023-03-30T02:18:54;5.2;;;2.7;;
63953;SDS011;50128;52.094;5.232;2023-03-30T02:20:30;6.5;;;3.0;;
63953;SDS011;50128;52.094;5.232;2023-03-30T02:23:43;6.0;;;2.9;;
63953;SDS011;50128;52.094;5.232;2023-03-30T02:25:20;6.5;;;2.9;;
63953;SDS011;50128;52.094;5.232;2023-03-30T02:26:57;5.3;;;2.7;;
63953;SDS011;50128;52.094;5.232;2023-03-30T02:28:35;5.4;;;2.8;;
63953;SDS011;50128;52.094;5.232;2023-03-30T02:31:48;5.4;;;2.8;;
63953;SDS011;50128;52.094;5.232;2023-03-30T02:33:28;5.8;;;2.5;;
63953;SDS011;50128;52.094;5.232;2023-03-30T02:35:26;7.5;;;2.9;;
63953;SDS011;50128;52.094;5.232;2023-03-30T02:37:23;5.6;;;2.6;;
63953;SDS011;50128;52.094;5.232;2023-03-30T02:40:17;7.6;;;2.6;;
63953;SDS011;50128;52.094;5.232;2023-03-30T02:42:16;7.2;;;2.9;;
63953;SDS011;50128;52.094;5.232;2023-03-30T02:44:13;6.5;;;2.9;;
63953;SDS011;50128;52.094;5.232;2023-03-30T02:46:04;7.0;;;2.5;;
63953;SDS011;50128;52.094;5.232;2023-03-30T02:47:56;7.7;;;3.2;;
63953;SDS011;50128;52.094;5.232;2023-03-30T02:49:49;6.8;;;2.9;;
63953;SDS011;50128;52.094;5.232;2023-03-30T02:53:19;4.7;;;2.5;;
63953;SDS011;50128;52.094;5.232;2023-03-30T02:55:08;5.11;;;2.4;;
63953;SDS011;50128;52.094;5.232;2023-03-30T02:56:52;7.3;;;2.7;;
63953;SDS011;50128;52.094;5.232;2023-03-30T02:58:38;8.2;;;2.7;;
63953;SDS011;50128;52.094;5.232;2023-03-30T03:00:21;4.91;;;2.21;;
63953;SDS011;50128;52.094;5.232;2023-03-30T03:03:48;7.3;;;2.21;;
63953;SDS011;50128;52.094;5.232;2023-03-30T03:05:27;4.91;;;2.5;;
63953;SDS011;50128;52.094;5.232;2023-03-30T03:07:04;6.0;;;2.31;;
63953;SDS011;50128;52.094;5.232;2023-03-30T03:08:41;5.6;;;2.4;;
63953;SDS011;50128;52.094;5.232;2023-03-30T03:11:55;6.8;;;2.5;;
63953;SDS011;50128;52.094;5.232;2023-03-30T03:34:25;5.2;;;2.1;;
63953;SDS011;50128;52.094;5.232;2023-03-30T03:36:01;4.61;;;1.9;;
63953;SDS011;50128;52.094;5.232;2023-03-30T03:37:38;4.91;;;1.9;;
63953;SDS011;50128;52.094;5.232;2023-03-30T03:40:51;6.5;;;2.0;;
63953;SDS011;50128;52.094;5.232;2023-03-30T03:42:29;4.5;;;1.9;;
63953;SDS011;50128;52.094;5.232;2023-03-30T03:44:05;4.91;;;2.1;;
63953;SDS011;50128;52.094;5.232;2023-03-30T03:47:17;4.91;;;1.8;;
63953;SDS011;50128;52.094;5.232;2023-03-30T03:48:53;6.8;;;2.21;;
63953;SDS011;50128;52.094;5.232;2023-03-30T03:50:29;4.8;;;1.9;;
63953;SDS011;50128;52.094;5.232;2023-03-30T03:53:41;5.6;;;1.8;;
63953;SDS011;50128;52.094;5.232;2023-03-30T03:55:17;5.9;;;2.0;;
63953;SDS011;50128;52.094;5.232;2023-03-30T03:56:54;5.8;;;1.8;;
63953;SDS011;50128;52.094;5.232;2023-03-30T04:00:06;7.9;;;2.1;;
63953;SDS011;50128;52.094;5.232;2023-03-30T04:37:05;7.3;;;2.1;;
63953;SDS011;50128;52.094;5.232;2023-03-30T04:38:41;8.2;;;2.5;;
63953;SDS011;50128;52.094;5.232;2023-03-30T04:41:53;7.0;;;2.4;;
63953;SDS011;50128;52.094;5.232;2023-03-30T04:43:29;10.4;;;2.5;;
63953;SDS011;50128;52.094;5.232;2023-03-30T04:45:06;8.81;;;2.4;;
63953;SDS011;50128;52.094;5.232;2023-03-30T04:46:43;10.21;;;2.8;;
63953;SDS011;50128;52.094;5.232;2023-03-30T04:49:58;7.0;;;2.7;;
63953;SDS011;50128;52.094;5.232;2023-03-30T04:51:34;7.3;;;2.31;;
63953;SDS011;50128;52.094;5.232;2023-03-30T04:53:10;6.4;;;2.1;;
63953;SDS011;50128;52.094;5.232;2023-03-30T04:56:23;6.6;;;2.1;;
63953;SDS011;50128;52.094;5.232;2023-03-30T04:57:59;6.0;;;2.21;;
63953;SDS011;50128;52.094;5.232;2023-03-30T04:59:35;9.71;;;2.8;;
63953;SDS011;50128;52.094;5.232;2023-03-30T05:02:49;8.4;;;2.4;;
63953;SDS011;50128;52.094;5.232;2023-03-30T05:04:25;8.31;;;2.7;;
63953;SDS011;50128;52.094;5.232;2023-03-30T05:06:01;6.7;;;2.31;;
63953;SDS011;50128;52.094;5.232;2023-03-30T05:07:37;6.7;;;2.1;;
63953;SDS011;50128;52.094;5.232;2023-03-30T05:10:49;6.8;;;2.4;;
63953;SDS011;50128;52.094;5.232;2023-03-30T05:12:25;7.1;;;2.5;;
63953;SDS011;50128;52.094;5.232;2023-03-30T05:14:01;8.4;;;2.5;;
63953;SDS011;50128;52.094;5.232;2023-03-30T05:17:14;6.1;;;2.4;;
63953;SDS011;50128;52.094;5.232;2023-03-30T05:18:50;6.6;;;2.31;;
63953;SDS011;50128;52.094;5.232;2023-03-30T05:20:26;9.4;;;2.9;;
63953;SDS011;50128;52.094;5.232;2023-03-30T05:23:38;7.9;;;2.9;;
63953;SDS011;50128;52.094;5.232;2023-03-30T05:25:14;11.3;;;3.0;;
63953;SDS011;50128;52.094;5.232;2023-03-30T05:26:51;9.31;;;3.1;;
63953;SDS011;50128;52.094;5.232;2023-03-30T05:30:04;8.71;;;2.7;;
63953;SDS011;50128;52.094;5.232;2023-03-30T05:31:42;9.71;;;2.9;;
63953;SDS011;50128;52.094;5.232;2023-03-30T05:33:18;9.81;;;3.6;;
63953;SDS011;50128;52.094;5.232;2023-03-30T05:34:54;11.5;;;3.7;;
63953;SDS011;50128;52.094;5.232;2023-03-30T05:38:06;11.2;;;3.7;;
63953;SDS011;50128;52.094;5.232;2023-03-30T05:39:42;10.4;;;3.4;;
63953;SDS011;50128;52.094;5.232;2023-03-30T05:41:19;9.5;;;3.4;;
63953;SDS011;50128;52.094;5.232;2023-03-30T05:44:31;11.5;;;3.5;;
63953;SDS011;50128;52.094;5.232;2023-03-30T05:46:07;11.7;;;3.7;;
63953;SDS011;50128;52.094;5.232;2023-03-30T05:47:43;13.4;;;3.3;;
63953;SDS011;50128;52.094;5.232;2023-03-30T05:50:55;13.1;;;3.9;;
63953;SDS011;50128;52.094;5.232;2023-03-30T05:52:31;13.1;;;3.5;;
63953;SDS011;50128;52.094;5.232;2023-03-30T05:54:09;13.9;;;4.3;;
63953;SDS011;50128;52.094;5.232;2023-03-30T05:55:46;11.8;;;4.0;;
63953;SDS011;50128;52.094;5.232;2023-03-30T05:59:00;14.9;;;4.2;;
63953;SDS011;50128;52.094;5.232;2023-03-30T06:00:36;14.3;;;3.8;;
63953;SDS011;50128;52.094;5.232;2023-03-30T06:02:12;11.5;;;3.8;;
63953;SDS011;50128;52.094;5.232;2023-03-30T06:05:24;13.9;;;4.1;;
63953;SDS011;50128;52.094;5.232;2023-03-30T06:07:01;14.5;;;3.9;;
63953;SDS011;50128;52.094;5.232;2023-03-30T06:08:37;16.2;;;4.0;;
63953;SDS011;50128;52.094;5.232;2023-03-30T06:11:50;16.61;;;4.2;;
63953;SDS011;50128;52.094;5.232;2023-03-30T06:13:26;17.91;;;4.2;;
63953;SDS011;50128;52.094;5.232;2023-03-30T06:15:02;16.2;;;4.5;;
63953;SDS011;50128;52.094;5.232;2023-03-30T06:16:38;17.7;;;4.7;;
63953;SDS011;50128;52.094;5.232;2023-03-30T06:19:50;13.5;;;4.1;;
63953;SDS011;50128;52.094;5.232;2023-03-30T06:21:27;19.0;;;4.8;;
63953;SDS011;50128;52.094;5.232;2023-03-30T06:23:04;14.8;;;4.1;;
63953;SDS011;50128;52.094;5.232;2023-03-30T06:26:16;15.9;;;4.41;;
63953;SDS011;50128;52.094;5.232;2023-03-30T06:27:52;14.3;;;4.2;;
63953;SDS011;50128;52.094;5.232;2023-03-30T06:29:28;16.2;;;4.61;;
63953;SDS011;50128;52.094;5.232;2023-03-30T06:32:44;14.4;;;4.1;;
63953;SDS011;50128;52.094;5.232;2023-03-30T06:34:21;13.8;;;4.1;;
63953;SDS011;50128;52.094;5.232;2023-03-30T06:35:57;17.41;;;5.2;;
63953;SDS011;50128;52.094;5.232;2023-03-30T06:37:33;16.2;;;4.5;;
63953;SDS011;50128;52.094;5.232;2023-03-30T06:40:47;16.2;;;4.5;;
63953;SDS011;50128;52.094;5.232;2023-03-30T06:42:25;15.6;;;4.41;;
63953;SDS011;50128;52.094;5.232;2023-03-30T06:44:01;23.5;;;5.11;;
63953;SDS011;50128;52.094;5.232;2023-03-30T06:47:14;19.5;;;4.41;;
63953;SDS011;50128;52.094;5.232;2023-03-30T06:48:50;17.5;;;4.91;;
63953;SDS011;50128;52.094;5.232;2023-03-30T06:50:26;22.3;;;5.3;;
63953;SDS011;50128;52.094;5.232;2023-03-30T06:53:39;18.5;;;4.61;;
63953;SDS011;50128;52.094;5.232;2023-03-30T06:55:15;21.3;;;4.61;;
63953;SDS011;50128;52.094;5.232;2023-03-30T06:56:51;21.2;;;5.3;;
63953;SDS011;50128;52.094;5.232;2023-03-30T06:58:28;19.5;;;4.61;;
63953;SDS011;50128;52.094;5.232;2023-03-30T07:01:43;19.3;;;4.8;;
63953;SDS011;50128;52.094;5.232;2023-03-30T07:03:19;16.9;;;4.61;;
63953;SDS011;50128;52.094;5.232;2023-03-30T07:04:55;18.2;;;4.8;;
63953;SDS011;50128;52.094;5.232;2023-03-30T07:08:07;19.5;;;5.3;;
63953;SDS011;50128;52.094;5.232;2023-03-30T07:09:43;18.41;;;5.11;;
63953;SDS011;50128;52.094;5.232;2023-03-30T07:11:20;20.11;;;5.11;;
63953;SDS011;50128;52.094;5.232;2023-03-30T07:14:32;23.4;;;5.4;;
63953;SDS011;50128;52.094;5.232;2023-03-30T07:16:08;21.2;;;5.8;;
63953;SDS011;50128;52.094;5.232;2023-03-30T07:17:44;23.0;;;5.11;;
63953;SDS011;50128;52.094;5.232;2023-03-30T07:20:56;20.41;;;4.7;;
63953;SDS011;50128;52.094;5.232;2023-03-30T07:22:33;24.7;;;5.3;;
63953;SDS011;50128;52.094;5.232;2023-03-30T07:24:10;19.11;;;5.11;;
63953;SDS011;50128;52.094;5.232;2023-03-30T07:25:46;19.11;;;4.7;;
63953;SDS011;50128;52.094;5.232;2023-03-30T07:28:58;18.7;;;5.4;;
63953;SDS011;50128;52.094;5.232;2023-03-30T07:30:34;17.61;;;5.0;;
63953;SDS011;50128;52.094;5.232;2023-03-30T07:32:11;19.0;;;5.0;;
63953;SDS011;50128;52.094;5.232;2023-03-30T07:35:24;21.1;;;5.2;;
63953;SDS011;50128;52.094;5.232;2023-03-30T07:37:00;22.7;;;5.4;;
63953;SDS011;50128;52.094;5.232;2023-03-30T07:38:36;24.6;;;5.3;;
63953;SDS011;50128;52.094;5.232;2023-03-30T07:41:48;19.2;;;5.4;;
63953;SDS011;50128;52.094;5.232;2023-03-30T07:43:24;15.0;;;4.61;;
63953;SDS011;50128;52.094;5.232;2023-03-30T07:45:01;17.2;;;5.0;;
63953;SDS011;50128;52.094;5.232;2023-03-30T07:46:37;17.11;;;5.11;;
63953;SDS011;50128;52.094;5.232;2023-03-30T07:49:49;21.2;;;5.2;;
63953;SDS011;50128;52.094;5.232;2023-03-30T07:51:25;17.8;;;4.91;;
63953;SDS011;50128;52.094;5.232;2023-03-30T07:53:01;20.2;;;5.11;;
63953;SDS011;50128;52.094;5.232;2023-03-30T07:56:14;20.9;;;5.3;;
63953;SDS011;50128;52.094;5.232;2023-03-30T07:57:51;17.5;;;5.3;;
63953;SDS011;50128;52.094;5.232;2023-03-30T07:59:27;18.41;;;4.91;;
63953;SDS011;50128;52.094;5.232;2023-03-30T08:02:39;18.8;;;5.11;;
63953;SDS011;50128;52.094;5.232;2023-03-30T08:04:15;17.5;;;4.7;;
63953;SDS011;50128;52.094;5.232;2023-03-30T08:05:52;18.61;;;5.11;;
63953;SDS011;50128;52.094;5.232;2023-03-30T08:07:29;18.91;;;5.0;;
63953;SDS011;50128;52.094;5.232;2023-03-30T08:10:44;19.41;;;4.5;;
63953;SDS011;50128;52.094;5.232;2023-03-30T08:12:20;16.11;;;4.2;;
63953;SDS011;50128;52.094;5.232;2023-03-30T08:13:56;16.3;;;4.5;;
63953;SDS011;50128;52.094;5.232;2023-03-30T08:17:08;19.8;;;4.8;;
63953;SDS011;50128;52.094;5.232;2023-03-30T08:18:44;17.7;;;5.2;;
63953;SDS011;50128;52.094;5.232;2023-03-30T08:20:20;17.61;;;5.2;;
63953;SDS011;50128;52.094;5.232;2023-03-30T08:23:32;20.6;;;5.11;;
63953;SDS011;50128;52.094;5.232;2023-03-30T08:25:09;21.8;;;5.5;;
63953;SDS011;50128;52.094;5.232;2023-03-30T08:26:46;20.5;;;5.2;;
63953;SDS011;50128;52.094;5.232;2023-03-30T08:29:58;19.41;;;5.2;;
63953;SDS011;50128;52.094;5.232;2023-03-30T08:31:35;22.9;;;5.7;;
63953;SDS011;50128;52.094;5.232;2023-03-30T08:33:13;20.6;;;5.4;;
63953;SDS011;50128;52.094;5.232;2023-03-30T08:34:51;21.9;;;5.6;;
63953;SDS011;50128;52.094;5.232;2023-03-30T08:38:04;21.0;;;5.8;;
63953;SDS011;50128;52.094;5.232;2023-03-30T08:39:42;19.7;;;5.11;;
63953;SDS011;50128;52.094;5.232;2023-03-30T08:44:56;21.8;;;5.11;;
63953;SDS011;50128;52.094;5.232;2023-03-30T08:46:35;19.2;;;5.4;;
63953;SDS011;50128;52.094;5.232;2023-03-30T08:48:14;21.1;;;5.2;;
63953;SDS011;50128;52.094;5.232;2023-03-30T08:49:54;21.7;;;5.4;;
63953;SDS011;50128;52.094;5.232;2023-03-30T08:51:42;20.0;;;5.0;;
63953;SDS011;50128;52.094;5.232;2023-03-30T08:55:00;20.3;;;5.11;;
63953;SDS011;50128;52.094;5.232;2023-03-30T08:56:39;16.5;;;4.8;;
63953;SDS011;50128;52.094;5.232;2023-03-30T08:58:35;19.8;;;5.3;;
63953;SDS011;50128;52.094;5.232;2023-03-30T09:00:23;20.9;;;5.11;;
63953;SDS011;50128;52.094;5.232;2023-03-30T09:02:12;22.4;;;5.3;;
63953;SDS011;50128;52.094;5.232;2023-03-30T09:05:46;16.3;;;4.5;;
63953;SDS011;50128;52.094;5.232;2023-03-30T09:07:30;20.41;;;5.4;;
63953;SDS011;50128;52.094;5.232;2023-03-30T09:09:15;18.91;;;4.8;;
63953;SDS011;50128;52.094;5.232;2023-03-30T09:10:56;21.5;;;5.3;;
63953;SDS011;50128;52.094;5.232;2023-03-30T09:12:37;21.5;;;5.3;;
63953;SDS011;50128;52.094;5.232;2023-03-30T09:16:08;22.2;;;5.7;;
63953;SDS011;50128;52.094;5.232;2023-03-30T09:17:54;21.1;;;5.3;;
63953;SDS011;50128;52.094;5.232;2023-03-30T09:19:41;21.7;;;5.4;;
63953;SDS011;50128;52.094;5.232;2023-03-30T09:21:27;20.9;;;5.11;;
63953;SDS011;50128;52.094;5.232;2023-03-30T09:23:07;24.2;;;5.8;;
63953;SDS011;50128;52.094;5.232;2023-03-30T09:26:26;24.9;;;5.6;;
63953;SDS011;50128;52.094;5.232;2023-03-30T09:28:19;23.9;;;5.5;;
63953;SDS011;50128;52.094;5.232;2023-03-30T09:30:06;20.2;;;5.11;;
63953;SDS011;50128;52.094;5.232;2023-03-30T09:31:54;22.9;;;5.7;;
63953;SDS011;50128;52.094;5.232;2023-03-30T09:33:40;18.91;;;5.5;;
63953;SDS011;50128;52.094;5.232;2023-03-30T09:35:22;23.4;;;6.5;;
63953;SDS011;50128;52.094;5.232;2023-03-30T09:38:46;17.3;;;4.91;;
63953;SDS011;50128;52.094;5.232;2023-03-30T09:40:27;26.2;;;5.9;;
63953;SDS011;50128;52.094;5.232;2023-03-30T09:42:18;24.0;;;5.9;;
63953;SDS011;50128;52.094;5.232;2023-03-30T09:44:02;25.9;;;6.1;;
63953;SDS011;50128;52.094;5.232;2023-03-30T09:45:49;26.3;;;6.2;;
63953;SDS011;50128;52.094;5.232;2023-03-30T09:49:11;20.11;;;5.2;;
63953;SDS011;50128;52.094;5.232;2023-03-30T09:50:50;23.0;;;5.7;;
63953;SDS011;50128;52.094;5.232;2023-03-30T09:52:29;22.5;;;6.3;;
63953;SDS011;50128;52.094;5.232;2023-03-30T09:55:53;22.8;;;6.0;;
63953;SDS011;50128;52.094;5.232;2023-03-30T09:57:34;25.8;;;6.1;;
63953;SDS011;50128;52.094;5.232;2023-03-30T09:59:20;21.5;;;6.5;;
63953;SDS011;50128;52.094;5.232;2023-03-30T10:01:06;27.9;;;6.7;;
63953;SDS011;50128;52.094;5.232;2023-03-30T10:02:50;23.3;;;6.1;;
63953;SDS011;50128;52.094;5.232;2023-03-30T10:06:11;27.5;;;7.1;;
63953;SDS011;50128;52.094;5.232;2023-03-30T10:07:53;23.0;;;5.9;;
63953;SDS011;50128;52.094;5.232;2023-03-30T10:09:33;28.5;;;6.6;;
63953;SDS011;50128;52.094;5.232;2023-03-30T10:11:21;24.7;;;6.1;;
63953;SDS011;50128;52.094;5.232;2023-03-30T10:13:14;27.5;;;6.8;;
63953;SDS011;50128;52.094;5.232;2023-03-30T10:16:33;30.2;;;6.8;;
63953;SDS011;50128;52.094;5.232;2023-03-30T10:18:18;27.5;;;6.2;;
63953;SDS011;50128;52.094;5.232;2023-03-30T10:20:21;28.4;;;6.7;;
63953;SDS011;50128;52.094;5.232;2023-03-30T10:22:03;26.4;;;6.7;;
63953;SDS011;50128;52.094;5.232;2023-03-30T10:24:16;22.8;;;6.3;;
63953;SDS011;50128;52.094;5.232;2023-03-30T10:25:59;31.7;;;8.1;;
63953;SDS011;50128;52.094;5.232;2023-03-30T10:27:39;27.9;;;7.3;;
63953;SDS011;50128;52.094;5.232;2023-03-30T10:30:59;27.3;;;6.3;;
63953;SDS011;50128;52.094;5.232;2023-03-30T10:32:39;26.3;;;6.7;;
63953;SDS011;50128;52.094;5.232;2023-03-30T10:34:22;24.0;;;6.9;;
63953;SDS011;50128;52.094;5.232;2023-03-30T10:36:12;30.2;;;6.9;;
63953;SDS011;50128;52.094;5.232;2023-03-30T10:39:33;26.4;;;6.3;;
63953;SDS011;50128;52.094;5.232;2023-03-30T10:41:12;21.3;;;6.3;;
63953;SDS011;50128;52.094;5.232;2023-03-30T10:42:53;21.0;;;6.3;;
63953;SDS011;50128;52.094;5.232;2023-03-30T10:44:33;25.4;;;6.2;;
63953;SDS011;50128;52.094;5.232;2023-03-30T10:47:59;23.5;;;6.3;;
63953;SDS011;50128;52.094;5.232;2023-03-30T10:49:49;24.7;;;6.4;;
63953;SDS011;50128;52.094;5.232;2023-03-30T10:51:42;25.4;;;6.3;;
63953;SDS011;50128;52.094;5.232;2023-03-30T10:53:32;25.4;;;6.3;;
63953;SDS011;50128;52.094;5.232;2023-03-30T10:55:22;21.8;;;6.5;;
63953;SDS011;50128;52.094;5.232;2023-03-30T10:57:07;22.2;;;6.0;;
63953;SDS011;50128;52.094;5.232;2023-03-30T11:00:50;23.7;;;5.8;;
63953;SDS011;50128;52.094;5.232;2023-03-30T11:02:48;20.9;;;6.2;;
63953;SDS011;50128;52.094;5.232;2023-03-30T11:04:40;24.4;;;5.8;;
63953;SDS011;50128;52.094;5.232;2023-03-30T11:06:20;20.3;;;6.0;;
63953;SDS011;50128;52.094;5.232;2023-03-30T11:08:03;27.0;;;6.6;;
63953;SDS011;50128;52.094;5.232;2023-03-30T11:09:43;24.1;;;5.9;;
63953;SDS011;50128;52.094;5.232;2023-03-30T11:13:12;22.2;;;5.9;;
63953;SDS011;50128;52.094;5.232;2023-03-30T11:14:55;25.1;;;6.1;;
63953;SDS011;50128;52.094;5.232;2023-03-30T11:16:41;23.0;;;5.7;;
63953;SDS011;50128;52.094;5.232;2023-03-30T11:18:24;19.8;;;4.91;;
63953;SDS011;50128;52.094;5.232;2023-03-30T11:20:16;20.0;;;5.3;;
63953;SDS011;50128;52.094;5.232;2023-03-30T11:23:44;21.1;;;5.11;;
63953;SDS011;50128;52.094;5.232;2023-03-30T11:25:29;17.7;;;5.2;;
63953;SDS011;50128;52.094;5.232;2023-03-30T11:27:13;23.4;;;5.6;;
63953;SDS011;50128;52.094;5.232;2023-03-30T11:28:59;19.11;;;4.91;;
63953;SDS011;50128;52.094;5.232;2023-03-30T11:30:46;21.4;;;5.3;;
63953;SDS011;50128;52.094;5.232;2023-03-30T11:34:17;20.3;;;5.9;;
63953;SDS011;50128;52.094;5.232;2023-03-30T11:36:02;18.8;;;5.4;;
63953;SDS011;50128;52.094;5.232;2023-03-30T11:37:51;20.11;;;4.7;;
63953;SDS011;50128;52.094;5.232;2023-03-30T11:39:35;22.3;;;7.5;;
63953;SDS011;50128;52.094;5.232;2023-03-30T11:41:19;19.0;;;5.11;;
63953;SDS011;50128;52.094;5.232;2023-03-30T11:43:02;19.8;;;6.6;;
63953;SDS011;50128;52.094;5.232;2023-03-30T11:46:18;23.6;;;6.4;;
63953;SDS011;50128;52.094;5.232;2023-03-30T11:48:06;20.0;;;5.3;;
63953;SDS011;50128;52.094;5.232;2023-03-30T11:50:08;20.6;;;5.2;;
63953;SDS011;50128;52.094;5.232;2023-03-30T11:52:02;23.1;;;6.2;;
63953;SDS011;50128;52.094;5.232;2023-03-30T11:53:52;23.1;;;6.2;;
63953;SDS011;50128;52.094;5.232;2023-03-30T11:55:43;22.9;;;5.6;;
63953;SDS011;50128;52.094;5.232;2023-03-30T11:59:15;24.5;;;6.6;;
63953;SDS011;50128;52.094;5.232;2023-03-30T12:01:09;20.2;;;5.5;;
63953;SDS011;50128;52.094;5.232;2023-03-30T12:03:10;23.9;;;6.0;;
63953;SDS011;50128;52.094;5.232;2023-03-30T12:04:59;24.0;;;5.5;;
63953;SDS011;50128;52.094;5.232;2023-03-30T12:06:42;22.2;;;6.1;;
63953;SDS011;50128;52.094;5.232;2023-03-30T12:08:41;25.6;;;6.3;;
63953;SDS011;50128;52.094;5.232;2023-03-30T12:10:34;21.8;;;5.4;;
63953;SDS011;50128;52.094;5.232;2023-03-30T12:12:17;26.2;;;6.7;;
63953;SDS011;50128;52.094;5.232;2023-03-30T12:16:07;21.2;;;5.7;;
63953;SDS011;50128;52.094;5.232;2023-03-30T12:17:51;23.9;;;5.8;;
63953;SDS011;50128;52.094;5.232;2023-03-30T12:19:36;20.6;;;5.4;;
63953;SDS011;50128;52.094;5.232;2023-03-30T12:21:24;22.0;;;6.0;;
63953;SDS011;50128;52.094;5.232;2023-03-30T12:23:12;24.3;;;6.2;;
63953;SDS011;50128;52.094;5.232;2023-03-30T12:25:00;23.0;;;6.0;;
63953;SDS011;50128;52.094;5.232;2023-03-30T12:28:26;22.2;;;6.1;;
63953;SDS011;50128;52.094;5.232;2023-03-30T12:30:22;26.8;;;6.7;;
63953;SDS011;50128;52.094;5.232;2023-03-30T12:32:04;23.0;;;6.7;;
63953;SDS011;50128;52.094;5.232;2023-03-30T12:33:58;25.9;;;6.7;;
63953;SDS011;50128;52.094;5.232;2023-03-30T12:35:45;26.9;;;6.4;;
63953;SDS011;50128;52.094;5.232;2023-03-30T12:37:31;25.2;;;6.4;;
63953;SDS011;50128;52.094;5.232;2023-03-30T12:41:01;22.8;;;6.4;;
63953;SDS011;50128;52.094;5.232;2023-03-30T12:42:44;26.5;;;6.6;;
63953;SDS011;50128;52.094;5.232;2023-03-30T12:44:40;27.6;;;6.2;;
63953;SDS011;50128;52.094;5.232;2023-03-30T12:46:28;24.3;;;6.1;;
63953;SDS011;50128;52.094;5.232;2023-03-30T12:48:23;28.4;;;6.7;;
63953;SDS011;50128;52.094;5.232;2023-03-30T12:50:22;22.3;;;6.2;;
63953;SDS011;50128;52.094;5.232;2023-03-30T12:52:22;22.4;;;5.8;;
63953;SDS011;50128;52.094;5.232;2023-03-30T12:54:19;23.9;;;6.3;;
63953;SDS011;50128;52.094;5.232;2023-03-30T12:56:42;20.5;;;5.4;;
63953;SDS011;50128;52.094;5.232;2023-03-30T12:58:39;23.4;;;6.6;;
63953;SDS011;50128;52.094;5.232;2023-03-30T13:00:39;23.9;;;6.4;;
63953;SDS011;50128;52.094;5.232;2023-03-30T13:02:47;26.3;;;6.6;;
63953;SDS011;50128;52.094;5.232;2023-03-30T13:05:38;27.9;;;6.5;;
63953;SDS011;50128;52.094;5.232;2023-03-30T13:07:19;22.5;;;6.0;;
63953;SDS011;50128;52.094;5.232;2023-03-30T13:09:03;24.8;;;6.4;;
63953;SDS011;50128;52.094;5.232;2023-03-30T13:11:10;24.0;;;6.4;;
63953;SDS011;50128;52.094;5.232;2023-03-30T13:14:39;23.3;;;6.2;;
63953;SDS011;50128;52.094;5.232;2023-03-30T13:17:26;24.4;;;6.3;;
63953;SDS011;50128;52.094;5.232;2023-03-30T13:19:09;24.7;;;5.7;;
63953;SDS011;50128;52.094;5.232;2023-03-30T13:21:15;27.8;;;7.0;;
63953;SDS011;50128;52.094;5.232;2023-03-30T13:22:58;27.3;;;6.3;;
63953;SDS011;50128;52.094;5.232;2023-03-30T13:25:23;27.4;;;6.3;;
63953;SDS011;50128;52.094;5.232;2023-03-30T13:46:40;26.3;;;6.8;;
63953;SDS011;50128;52.094;5.232;2023-03-30T13:50:24;22.5;;;6.6;;
63953;SDS011;50128;52.094;5.232;2023-03-30T13:52:04;24.1;;;6.2;;
63953;SDS011;50128;52.094;5.232;2023-03-30T13:53:48;24.7;;;6.5;;
63953;SDS011;50128;52.094;5.232;2023-03-30T13:55:31;23.7;;;5.5;;
63953;SDS011;50128;52.094;5.232;2023-03-30T13:57:11;23.6;;;6.0;;
63953;SDS011;50128;52.094;5.232;2023-03-30T14:07:25;19.0;;;6.0;;
63953;SDS011;50128;52.094;5.232;2023-03-30T14:10:49;20.9;;;5.6;;
63953;SDS011;50128;52.094;5.232;2023-03-30T14:12:28;20.0;;;4.8;;
63953;SDS011;50128;52.094;5.232;2023-03-30T14:14:12;16.9;;;4.7;;
63953;SDS011;50128;52.094;5.232;2023-03-30T14:15:52;19.91;;;5.6;;
63953;SDS011;50128;52.094;5.232;2023-03-30T14:22:34;18.41;;;4.8;;
63953;SDS011;50128;52.094;5.232;2023-03-30T14:24:15;19.8;;;5.4;;
63953;SDS011;50128;52.094;5.232;2023-03-30T14:27:34;19.41;;;4.61;;